Time;durP1;ratioP1;P1;durP2;ratioP2;P2;SDS_P1;SDS_P2;PMS_P1;PMS_P2;Temp;Humidity;BMP_temperature;BMP_pressure;BME280_temperature;BME280_humidity;BME280_pressure;Samples;Min_cycle;Max_cycle;Signal;HPM_P1;HPM_P2
2021/06/01 00:00:31;;;;;;;4.43;3.03;;;;;;;23.58;36.60;101967.78;4165988;28;20033;-55
2021/06/01 00:02:32;;;;;;;4.05;3.25;;;;;;;23.54;36.61;101969.47;4166658;28;20110;-53
2021/06/01 00:04:32;;;;;;;3.72;3.00;;;;;;;23.42;36.84;101960.56;4166833;28;20032;-51
2021/06/01 00:06:33;;;;;;;3.67;2.78;;;;;;;23.51;36.80;101973.69;4168202;28;20037;-50
2021/06/01 00:08:34;;;;;;;4.05;2.75;;;;;;;23.46;36.81;101968.09;4168089;28;20140;-52
2021/06/01 00:10:34;;;;;;;3.75;3.03;;;;;;;23.56;36.48;101966.38;4170854;28;20717;-51
2021/06/01 00:12:35;;;;;;;3.28;2.97;;;;;;;23.49;36.74;101966.69;4169572;28;20025;-53
2021/06/01 00:14:36;;;;;;;4.72;3.15;;;;;;;23.33;36.88;101951.94;4168706;28;20128;-53
2021/06/01 00:16:38;;;;;;;3.50;3.22;;;;;;;23.44;36.73;101961.97;4167079;28;20025;-49
2021/06/01 00:18:42;;;;;;;4.28;2.95;;;;;;;23.38;36.67;101960.28;4170016;28;20026;-48
2021/06/01 00:20:43;;;;;;;3.78;2.90;;;;;;;23.38;36.85;101953.88;4166119;28;20108;-49
2021/06/01 00:22:43;;;;;;;4.25;2.80;;;;;;;23.39;36.81;101967.56;4168309;28;20036;-52
2021/06/01 00:24:44;;;;;;;4.90;3.50;;;;;;;23.44;36.64;101964.75;4167307;28;20037;-51
2021/06/01 00:26:44;;;;;;;3.33;2.95;;;;;;;23.38;36.85;101959.47;4167002;28;20526;-49
2021/06/01 00:28:45;;;;;;;3.13;2.70;;;;;;;23.34;36.74;101964.75;4169597;28;20120;-52
2021/06/01 00:30:45;;;;;;;7.03;2.72;;;;;;;23.28;36.82;101965.88;4165433;28;20037;-50
2021/06/01 00:32:46;;;;;;;5.30;3.22;;;;;;;23.27;36.85;101958.63;4168676;28;20044;-53
2021/06/01 00:34:46;;;;;;;3.78;3.17;;;;;;;23.25;36.84;101963.63;4175360;28;20039;-55
2021/06/01 00:36:46;;;;;;;4.82;2.75;;;;;;;23.25;36.66;101956.13;4164337;28;20057;-54
2021/06/01 00:38:47;;;;;;;2.60;2.40;;;;;;;23.28;36.67;101955.53;4168556;28;20509;-55
2021/06/01 00:40:48;;;;;;;3.47;2.78;;;;;;;23.24;36.56;101950.81;4178764;28;20033;-53
2021/06/01 00:42:48;;;;;;;2.90;2.50;;;;;;;23.26;36.65;101949.38;4168471;28;20026;-50
2021/06/01 00:44:50;;;;;;;2.83;2.53;;;;;;;23.13;36.80;101947.19;4167081;28;20496;-54
2021/06/01 00:46:51;;;;;;;6.18;3.10;;;;;;;23.19;36.84;101950.78;4167121;28;20040;-55
2021/06/01 00:48:51;;;;;;;3.90;2.72;;;;;;;23.19;36.91;101953.59;4166613;28;20728;-52
2021/06/01 00:50:52;;;;;;;4.03;3.30;;;;;;;23.15;36.69;101954.16;4169078;28;20040;-53
2021/06/01 00:52:54;;;;;;;3.42;2.88;;;;;;;23.13;36.64;101956.41;4163406;28;20174;-55
2021/06/01 00:54:54;;;;;;;3.42;2.90;;;;;;;23.17;36.60;101953.88;4169818;28;20517;-53
2021/06/01 00:56:55;;;;;;;3.65;3.03;;;;;;;23.16;36.82;101955.00;4172553;28;20037;-53
2021/06/01 00:58:57;;;;;;;3.95;3.00;;;;;;;23.18;36.62;101951.94;4166686;28;20109;-51
2021/06/01 01:02:57;;;;;;;2.92;2.72;;;;;;;23.09;36.60;101951.66;4167601;28;20055;-54
2021/06/01 01:04:58;;;;;;;8.45;2.90;;;;;;;22.90;37.20;101937.44;4179317;28;20068;-52
2021/06/01 01:07:17;;;;;;;3.17;2.88;;;;;;;23.02;36.66;101948.31;4169345;28;20026;-50
2021/06/01 01:09:17;;;;;;;4.75;3.03;;;;;;;22.99;36.74;101944.13;4174064;28;20399;-50
2021/06/01 01:11:31;;;;;;;3.25;2.95;;;;;;;23.00;36.94;101945.78;4168093;28;20030;-48
2021/06/01 01:13:48;;;;;;;3.25;2.70;;;;;;;23.00;36.98;101953.34;4167345;28;20052;-51
2021/06/01 01:15:51;;;;;;;3.97;3.00;;;;;;;22.97;36.73;101947.22;4173548;28;20074;-49
2021/06/01 01:17:57;;;;;;;2.78;2.55;;;;;;;22.91;36.73;101944.69;4167265;28;20036;-49
2021/06/01 01:20:37;;;;;;;2.78;2.55;;;;;;;22.87;37.01;101938.00;4175731;28;20489;-48
2021/06/01 01:22:42;;;;;;;2.90;2.50;;;;;;;22.93;36.80;101939.69;4167851;28;20638;-49
2021/06/01 01:24:58;;;;;;;2.40;2.20;;;;;;;22.85;36.74;101935.50;4165718;28;20075;-50
2021/06/01 01:26:59;;;;;;;2.95;2.67;;;;;;;22.92;36.87;101940.78;4163896;28;20033;-49
2021/06/01 01:29:20;;;;;;;4.80;2.50;;;;;;;22.90;36.80;101943.03;4168437;28;20029;-49
2021/06/01 01:31:28;;;;;;;3.53;2.80;;;;;;;22.94;37.00;101933.81;4166430;28;20036;-48
2021/06/01 01:33:35;;;;;;;3.22;2.78;;;;;;;22.86;36.94;101936.31;4168404;28;20191;-48
2021/06/01 01:35:37;;;;;;;4.18;2.50;;;;;;;22.84;37.09;101932.97;4170099;28;21449;-49
2021/06/01 01:37:39;;;;;;;2.70;2.50;;;;;;;22.72;36.71;101925.72;4166379;28;20050;-53
2021/06/01 01:39:46;;;;;;;2.83;2.63;;;;;;;22.78;37.20;101929.34;4169066;28;20041;-51
2021/06/01 01:41:47;;;;;;;2.65;2.45;;;;;;;22.81;36.80;101934.38;4176514;28;20033;-48
2021/06/01 01:43:53;;;;;;;3.08;2.63;;;;;;;22.79;36.78;101931.84;4167901;28;20041;-48
2021/06/01 01:46:04;;;;;;;2.50;2.30;;;;;;;22.74;36.74;101922.63;4168894;28;20026;-48
2021/06/01 01:50:28;;;;;;;3.47;2.50;;;;;;;22.72;37.01;101920.13;4165236;28;20115;-52
2021/06/01 01:52:30;;;;;;;2.55;2.35;;;;;;;22.75;36.94;101933.53;4173253;28;20037;-52
2021/06/01 01:54:31;;;;;;;3.22;2.70;;;;;;;22.73;36.78;101924.59;4167252;28;20714;-48
2021/06/01 01:56:37;;;;;;;2.90;2.70;;;;;;;22.73;36.71;101927.41;4166546;28;20040;-48
2021/06/01 01:58:38;;;;;;;2.67;2.50;;;;;;;22.67;36.91;101928.50;4175033;28;20041;-50
2021/06/01 02:00:39;;;;;;;2.40;2.30;;;;;;;22.70;37.04;101927.94;4172707;28;20033;-48
2021/06/01 02:02:39;;;;;;;2.15;2.05;;;;;;;22.66;36.93;101923.22;4169319;28;20044;-47
2021/06/01 02:04:42;;;;;;;2.30;2.10;;;;;;;22.62;37.18;101917.31;4163388;28;20116;-47
2021/06/01 02:06:42;;;;;;;4.72;2.30;;;;;;;22.62;36.73;101920.94;4166438;28;20731;-48
2021/06/01 02:08:44;;;;;;;2.65;2.42;;;;;;;22.62;37.02;101920.94;4171602;28;20057;-49
2021/06/01 02:10:44;;;;;;;2.50;2.30;;;;;;;22.52;37.28;101906.97;4162795;28;20095;-49
2021/06/01 02:12:45;;;;;;;2.60;2.40;;;;;;;22.50;37.08;101913.97;4169670;28;20123;-48
2021/06/01 02:14:45;;;;;;;2.72;2.20;;;;;;;22.44;37.46;101916.75;4170509;28;20037;-48
2021/06/01 02:16:47;;;;;;;2.65;2.20;;;;;;;22.52;36.94;101912.56;4170152;28;20082;-52
2021/06/01 02:18:48;;;;;;;2.80;2.60;;;;;;;22.47;37.21;101918.16;4168637;28;20033;-48
2021/06/01 02:20:52;;;;;;;2.65;2.45;;;;;;;22.40;37.41;101915.63;4165708;28;20025;-48
2021/06/01 02:25:38;;;;;;;4.10;2.35;;;;;;;22.29;37.39;101907.53;4167071;28;20122;-46
2021/06/01 02:27:45;;;;;;;2.13;2.03;;;;;;;22.30;37.69;101912.81;4167160;28;20040;-50
2021/06/01 02:30:03;;;;;;;2.70;2.50;;;;;;;22.35;37.56;101917.56;4168310;28;20021;-50
2021/06/01 02:32:05;;;;;;;3.20;2.65;;;;;;;22.37;37.23;101918.97;4166177;28;20021;-49
2021/06/01 02:34:07;;;;;;;2.55;2.22;;;;;;;22.34;37.51;101918.72;4172746;28;20480;-49
2021/06/01 02:36:08;;;;;;;2.33;2.05;;;;;;;22.28;37.30;101920.66;4172384;28;20167;-50
2021/06/01 02:38:10;;;;;;;2.40;2.20;;;;;;;22.18;37.83;101920.63;4169261;28;20053;-49
2021/06/01 02:40:14;;;;;;;2.20;2.10;;;;;;;22.11;37.78;101915.31;4165712;28;20466;-49
2021/06/01 02:42:14;;;;;;;2.40;2.28;;;;;;;22.15;37.58;101922.03;4167331;28;20099;-49
2021/06/01 02:44:15;;;;;;;3.40;2.05;;;;;;;22.24;37.43;101920.38;4168737;28;20033;-49
2021/06/01 02:46:18;;;;;;;2.55;2.35;;;;;;;21.97;37.58;101889.88;4162136;28;20065;-52
2021/06/01 02:48:21;;;;;;;2.70;2.50;;;;;;;22.16;37.45;101918.09;4166920;28;20025;-49
2021/06/01 02:50:22;;;;;;;2.33;2.13;;;;;;;22.10;37.88;101913.63;4177145;28;20426;-50
2021/06/01 02:52:23;;;;;;;2.15;2.05;;;;;;;22.03;37.87;101916.69;4165772;28;20455;-53
2021/06/01 02:54:24;;;;;;;2.75;2.38;;;;;;;22.09;37.75;101917.53;4156053;28;20049;-48
2021/06/01 02:56:25;;;;;;;2.65;2.35;;;;;;;22.08;37.57;101916.69;4165143;28;20043;-48
2021/06/01 02:58:25;;;;;;;2.30;2.20;;;;;;;21.99;37.79;101896.03;4163559;28;20555;-51
2021/06/01 03:00:26;;;;;;;3.53;2.45;;;;;;;22.06;37.56;101910.56;4167917;28;20693;-51
2021/06/01 03:02:28;;;;;;;2.00;1.90;;;;;;;22.12;37.75;101910.56;4165068;28;20037;-52
2021/06/01 03:04:28;;;;;;;3.00;2.40;;;;;;;22.04;37.82;101907.22;4161660;28;20531;-52
2021/06/01 03:06:30;;;;;;;2.08;1.95;;;;;;;22.03;37.58;101911.09;4168287;28;20037;-50
2021/06/01 03:08:30;;;;;;;2.30;2.17;;;;;;;22.05;37.54;101910.84;4169186;28;20079;-54
2021/06/01 03:10:31;;;;;;;2.67;2.03;;;;;;;22.08;37.43;101911.13;4166302;28;20056;-54
2021/06/01 03:14:32;;;;;;;2.17;2.08;;;;;;;22.00;37.73;101911.66;4164721;28;20056;-50
2021/06/01 03:16:32;;;;;;;2.95;2.75;;;;;;;21.96;37.74;101904.91;4168854;28;20491;-49
2021/06/01 03:18:33;;;;;;;2.75;2.20;;;;;;;22.02;37.82;101906.63;4170441;28;20040;-50
2021/06/01 03:20:33;;;;;;;2.78;2.58;;;;;;;21.84;38.03;101907.09;4166242;28;20590;-51
2021/06/01 03:22:34;;;;;;;2.72;2.35;;;;;;;21.95;37.60;101902.41;4170166;28;20132;-53
2021/06/01 03:24:34;;;;;;;4.07;2.50;;;;;;;21.92;37.43;101901.84;4170859;28;20041;-54
2021/06/01 03:26:35;;;;;;;2.40;2.20;;;;;;;21.93;37.68;101891.53;4167422;28;20033;-48
2021/06/01 03:28:35;;;;;;;2.45;2.25;;;;;;;21.89;37.82;101887.63;4170647;28;20114;-49
2021/06/01 03:30:36;;;;;;;3.55;2.10;;;;;;;21.91;37.84;101890.97;4169042;28;20495;-51
2021/06/01 03:32:38;;;;;;;2.17;1.95;;;;;;;21.89;37.78;101893.22;4172160;28;20029;-50
2021/06/01 03:34:38;;;;;;;2.53;2.20;;;;;;;21.85;37.71;101897.66;4162211;28;20110;-50
2021/06/01 03:36:38;;;;;;;2.40;2.20;;;;;;;21.77;37.86;101889.81;4165976;28;20033;-50
2021/06/01 03:38:39;;;;;;;2.70;2.30;;;;;;;21.77;38.03;101887.88;4164921;28;20414;-54
2021/06/01 03:40:40;;;;;;;2.72;2.53;;;;;;;21.62;37.88;101851.59;4160309;28;20037;-48
2021/06/01 03:42:41;;;;;;;4.40;2.55;;;;;;;21.60;38.08;101873.31;4165539;28;20091;-51
2021/06/01 03:44:42;;;;;;;2.08;1.98;;;;;;;21.78;37.92;101885.91;4171353;28;20753;-51
2021/06/01 03:46:42;;;;;;;2.67;2.47;;;;;;;21.81;37.69;101893.72;4164579;28;20091;-54
2021/06/01 03:48:43;;;;;;;1.90;1.80;;;;;;;21.74;37.87;101878.09;4154988;28;20594;-52
2021/06/01 03:50:43;;;;;;;2.50;2.30;;;;;;;21.79;37.98;101884.81;4172242;28;20041;-54
2021/06/01 03:52:45;;;;;;;2.75;2.53;;;;;;;21.70;37.89;101896.50;4162954;28;20041;-49
2021/06/01 03:54:45;;;;;;;2.10;2.00;;;;;;;21.70;38.05;101888.13;4171798;28;20031;-49
2021/06/01 03:56:45;;;;;;;2.00;1.90;;;;;;;21.72;38.04;101894.25;4169795;28;20084;-49
2021/06/01 03:58:46;;;;;;;2.42;2.30;;;;;;;21.72;37.98;101899.84;4168924;28;20038;-52
2021/06/01 04:00:46;;;;;;;2.55;2.40;;;;;;;21.70;37.98;101893.72;4162326;28;20075;-55
2021/06/01 04:02:47;;;;;;;2.10;1.90;;;;;;;21.71;37.73;101898.16;4166077;28;20411;-56
2021/06/01 04:04:49;;;;;;;2.40;2.20;;;;;;;21.73;37.72;101895.09;4163569;28;20068;-57
2021/06/01 04:06:50;;;;;;;3.58;2.60;;;;;;;21.71;37.75;101905.69;4162692;28;20026;-55
2021/06/01 04:08:50;;;;;;;1.98;1.88;;;;;;;21.74;37.82;101905.97;4170094;28;20032;-55
2021/06/01 04:10:50;;;;;;;3.78;2.33;;;;;;;21.70;37.97;101899.28;4168167;28;20144;-54
2021/06/01 04:12:51;;;;;;;2.67;2.10;;;;;;;21.70;38.05;101904.84;4167972;28;20041;-54
2021/06/01 04:14:51;;;;;;;3.90;2.45;;;;;;;21.62;37.97;101897.00;4170778;28;20088;-55
2021/06/01 04:16:56;;;;;;;2.22;2.13;;;;;;;21.67;37.86;101897.03;4166371;28;20029;-54
2021/06/01 04:18:57;;;;;;;2.28;2.08;;;;;;;21.71;37.79;101898.16;4170366;28;20033;-52
2021/06/01 04:20:59;;;;;;;3.03;2.35;;;;;;;21.65;37.94;101890.06;4168890;28;20499;-54
2021/06/01 04:22:59;;;;;;;2.15;2.00;;;;;;;21.65;37.98;101893.66;4163623;28;20479;-51
2021/06/01 04:25:00;;;;;;;2.38;2.15;;;;;;;21.72;37.58;101897.03;4168131;28;20033;-51
2021/06/01 04:27:01;;;;;;;2.45;2.25;;;;;;;21.67;37.50;101896.19;4167388;28;20817;-53
2021/06/01 04:29:02;;;;;;;2.42;2.22;;;;;;;21.62;38.03;101893.38;4162941;28;20034;-50
2021/06/01 04:31:02;;;;;;;1.95;1.85;;;;;;;21.57;37.95;101897.00;4162748;28;20076;-49
2021/06/01 04:33:03;;;;;;;2.05;1.85;;;;;;;21.65;37.70;101895.63;4164920;28;20391;-49
2021/06/01 04:35:04;;;;;;;2.30;2.10;;;;;;;21.64;37.68;101894.81;4172218;28;20116;-54
2021/06/01 04:37:04;;;;;;;2.40;2.20;;;;;;;21.60;37.77;101892.84;4167898;28;20064;-49
2021/06/01 04:39:05;;;;;;;2.60;2.40;;;;;;;21.61;38.01;101894.47;4167355;28;20033;-50
2021/06/01 04:41:06;;;;;;;3.92;2.10;;;;;;;21.52;38.00;101880.25;4165915;28;20029;-51
2021/06/01 04:43:06;;;;;;;2.20;2.10;;;;;;;21.63;37.67;101887.53;4160390;28;20029;-49
2021/06/01 04:45:07;;;;;;;2.05;1.95;;;;;;;21.46;37.78;101878.56;4166765;28;20026;-50
2021/06/01 04:47:07;;;;;;;2.10;1.90;;;;;;;21.51;37.89;101884.97;4159806;28;20091;-50
2021/06/01 04:49:08;;;;;;;2.35;2.17;;;;;;;21.60;37.78;101890.88;4164384;28;20029;-50
2021/06/01 04:51:16;;;;;;;3.42;2.53;;;;;;;21.54;37.80;101878.84;4164780;28;20026;-51
2021/06/01 04:53:17;;;;;;;2.80;2.47;;;;;;;21.65;37.41;101881.69;4171202;28;20052;-50
2021/06/01 04:55:17;;;;;;;3.47;2.30;;;;;;;21.54;37.60;101878.84;4173642;28;20562;-51
2021/06/01 04:57:18;;;;;;;2.55;2.35;;;;;;;21.46;37.60;101892.50;4175991;28;20486;-53
2021/06/01 04:59:18;;;;;;;2.38;2.25;;;;;;;21.57;37.55;101874.69;4168252;28;20043;-53
2021/06/01 05:01:19;;;;;;;1.83;1.73;;;;;;;21.59;37.40;101880.00;4173195;28;20024;-53
2021/06/01 05:03:19;;;;;;;2.47;2.28;;;;;;;21.55;37.79;101880.53;4171808;28;20424;-51
2021/06/01 05:05:20;;;;;;;3.50;2.00;;;;;;;21.55;37.59;101880.53;4165077;28;20025;-53
2021/06/01 05:07:20;;;;;;;2.83;2.58;;;;;;;21.62;37.93;101885.03;4174268;28;20025;-51
2021/06/01 05:09:20;;;;;;;3.15;2.85;;;;;;;21.57;38.04;101880.28;4167079;28;20036;-52
2021/06/01 05:11:21;;;;;;;2.15;2.05;;;;;;;21.59;37.75;101877.22;4171608;28;20060;-50
2021/06/01 05:13:22;;;;;;;2.30;2.17;;;;;;;21.37;37.91;101872.66;4174997;28;20510;-49
2021/06/01 05:15:22;;;;;;;1.85;1.75;;;;;;;21.43;37.90;101882.72;4166938;28;20033;-48
2021/06/01 05:17:23;;;;;;;2.20;2.03;;;;;;;21.52;37.48;101889.44;4167398;28;20057;-51
2021/06/01 05:19:24;;;;;;;2.70;2.50;;;;;;;21.43;38.10;101881.88;4170252;28;20029;-51
2021/06/01 05:21:24;;;;;;;2.28;2.17;;;;;;;21.40;37.99;101885.22;4167504;28;20057;-50
2021/06/01 05:23:24;;;;;;;2.28;2.17;;;;;;;21.37;38.11;101887.41;4166868;28;20025;-50
2021/06/01 05:25:25;;;;;;;2.50;2.35;;;;;;;21.44;37.88;101884.41;4166965;28;20033;-53
2021/06/01 05:27:25;;;;;;;2.15;2.00;;;;;;;21.36;37.99;101882.97;4175394;28;20045;-53
2021/06/01 05:29:26;;;;;;;2.10;1.90;;;;;;;21.33;38.24;101883.53;4174645;28;20045;-53
2021/06/01 05:31:40;;;;;;;2.40;2.20;;;;;;;21.31;38.07;101887.66;4166293;28;20033;-51
2021/06/01 05:33:46;;;;;;;2.30;2.20;;;;;;;21.29;38.20;101885.16;4173541;28;20045;-54
2021/06/01 05:37:52;;;;;;;2.10;2.00;;;;;;;21.30;38.21;101877.63;4171742;28;20049;-51
2021/06/01 05:39:53;;;;;;;2.75;1.80;;;;;;;21.28;38.38;101875.09;4171348;28;20052;-51
2021/06/01 05:41:53;;;;;;;2.15;2.05;;;;;;;21.26;38.47;101876.47;4169584;28;20061;-50
2021/06/01 05:43:54;;;;;;;2.25;2.05;;;;;;;21.27;38.40;101876.22;4166640;28;20041;-50
2021/06/01 05:45:54;;;;;;;2.15;1.95;;;;;;;21.20;38.45;101868.09;4173755;28;20025;-49
2021/06/01 05:47:55;;;;;;;1.95;1.85;;;;;;;21.24;38.30;101873.09;4169983;28;20597;-53
2021/06/01 05:49:55;;;;;;;1.83;1.73;;;;;;;21.24;38.31;101871.19;4167230;28;20045;-53
2021/06/01 05:51:56;;;;;;;1.70;1.60;;;;;;;21.27;38.44;101870.66;4168514;28;20040;-49
2021/06/01 05:53:56;;;;;;;2.35;2.22;;;;;;;21.31;38.30;101880.16;4172552;28;20032;-52
2021/06/01 05:55:57;;;;;;;2.17;1.70;;;;;;;21.24;38.19;101875.91;4175007;28;20037;-52
2021/06/01 05:57:58;;;;;;;2.47;1.90;;;;;;;21.23;38.38;101883.41;4168596;28;20502;-51
2021/06/01 05:59:59;;;;;;;1.98;1.88;;;;;;;21.20;38.35;101878.41;4170821;28;20456;-49
2021/06/01 06:01:59;;;;;;;2.00;1.90;;;;;;;21.24;38.35;101882.31;4168256;28;20059;-54
2021/06/01 06:04:01;;;;;;;2.53;2.30;;;;;;;21.24;38.31;101873.09;4171087;28;20049;-52
2021/06/01 06:06:06;;;;;;;2.47;1.88;;;;;;;21.27;38.19;101878.13;4171044;28;20035;-52
2021/06/01 06:08:08;;;;;;;2.20;2.10;;;;;;;21.28;38.44;101875.09;4169738;28;20048;-52
2021/06/01 06:10:10;;;;;;;2.05;1.88;;;;;;;21.24;38.42;101867.53;4173994;28;20577;-51
2021/06/01 06:12:10;;;;;;;3.13;1.95;;;;;;;21.29;38.29;101882.38;4168250;28;20059;-53
2021/06/01 06:14:10;;;;;;;1.80;1.70;;;;;;;21.28;38.16;101877.03;4167364;28;20511;-50
2021/06/01 06:16:17;;;;;;;1.98;1.88;;;;;;;21.29;38.52;101874.00;4171521;28;20036;-55
2021/06/01 06:18:28;;;;;;;2.30;2.10;;;;;;;21.34;38.39;101874.03;4166656;28;20688;-56
2021/06/01 06:20:29;;;;;;;1.90;1.80;;;;;;;21.19;38.26;101848.88;4167833;28;20052;-55
2021/06/01 06:22:30;;;;;;;1.92;1.77;;;;;;;21.35;38.41;101863.75;4164437;28;20120;-55
2021/06/01 06:24:30;;;;;;;2.13;1.92;;;;;;;21.30;38.34;101863.72;4167885;28;20036;-51
2021/06/01 06:26:31;;;;;;;3.78;2.03;;;;;;;21.29;38.63;101857.31;4166620;28;20033;-53
2021/06/01 06:28:32;;;;;;;2.10;2.00;;;;;;;21.30;38.53;101861.78;4169477;28;20029;-53
2021/06/01 06:30:32;;;;;;;2.40;2.20;;;;;;;21.35;38.52;101863.75;4165323;28;20056;-57
2021/06/01 06:32:33;;;;;;;2.05;1.95;;;;;;;21.34;38.19;101873.22;4167526;28;20036;-55
2021/06/01 06:34:33;;;;;;;1.73;1.63;;;;;;;21.34;38.27;101862.91;4166660;28;20033;-53
2021/06/01 06:36:34;;;;;;;2.30;1.55;;;;;;;21.36;38.25;101870.97;4166520;28;20480;-56
2021/06/01 06:38:34;;;;;;;1.98;1.88;;;;;;;21.36;38.54;101873.75;4170791;28;20048;-52
2021/06/01 06:40:35;;;;;;;1.88;1.75;;;;;;;21.39;38.03;101870.44;4168765;28;20044;-50
2021/06/01 06:42:36;;;;;;;2.25;1.70;;;;;;;21.37;38.50;101878.22;4162775;28;20037;-48
2021/06/01 06:44:37;;;;;;;1.98;1.83;;;;;;;21.38;38.51;101868.78;4164472;28;20392;-49
2021/06/01 06:46:42;;;;;;;2.00;1.90;;;;;;;21.36;38.28;101876.53;4171145;28;20044;-50
2021/06/01 06:48:43;;;;;;;2.25;2.15;;;;;;;21.42;38.44;101869.88;4168059;28;20082;-52
2021/06/01 06:50:43;;;;;;;1.92;1.75;;;;;;;21.45;38.14;101872.13;4152758;28;20054;-49
2021/06/01 06:52:44;;;;;;;2.30;2.10;;;;;;;21.50;37.96;101868.53;4163528;28;20038;-53
2021/06/01 06:54:45;;;;;;;1.80;1.70;;;;;;;21.50;38.30;101868.53;4163256;28;20117;-54
2021/06/01 06:56:45;;;;;;;3.13;1.95;;;;;;;21.28;38.22;101829.69;4165059;28;20042;-55
2021/06/01 06:58:46;;;;;;;1.85;1.75;;;;;;;21.49;38.30;101859.34;4162315;28;20403;-54
2021/06/01 07:00:46;;;;;;;2.58;1.90;;;;;;;21.57;38.17;101871.91;4162092;28;20036;-48
2021/06/01 07:02:47;;;;;;;1.48;1.38;;;;;;;21.59;38.01;101860.50;4170797;28;20079;-50
2021/06/01 07:04:48;;;;;;;3.45;1.63;;;;;;;21.52;38.62;101858.81;4159494;28;20081;-51
2021/06/01 07:06:48;;;;;;;4.18;1.90;;;;;;;21.47;38.25;101835.66;4165180;28;20036;-50
2021/06/01 07:08:50;;;;;;;2.33;2.13;;;;;;;21.61;38.33;101855.47;4169579;28;20491;-52
2021/06/01 07:10:50;;;;;;;4.20;2.25;;;;;;;21.58;38.35;101856.03;4165121;28;20108;-50
2021/06/01 07:12:51;;;;;;;2.60;1.70;;;;;;;21.59;38.47;101852.97;4167570;28;20075;-50
2021/06/01 07:15:11;;;;;;;3.08;1.90;;;;;;;21.62;38.43;101846.84;4173055;28;20033;-51
2021/06/01 07:17:12;;;;;;;2.38;2.17;;;;;;;21.63;38.17;101850.50;4164677;28;20025;-50
2021/06/01 07:19:14;;;;;;;2.03;1.83;;;;;;;21.65;38.38;101846.31;4173132;28;20426;-53
2021/06/01 07:21:14;;;;;;;5.28;1.70;;;;;;;21.68;38.05;101848.53;4161792;28;20278;-51
2021/06/01 07:23:15;;;;;;;4.45;1.90;;;;;;;21.68;38.11;101862.47;4163551;28;20096;-52
2021/06/01 07:25:16;;;;;;;3.47;2.00;;;;;;;21.60;38.23;101860.22;4166662;28;20029;-50
2021/06/01 07:27:16;;;;;;;3.60;1.88;;;;;;;21.68;38.35;101861.66;4163908;28;20082;-52
2021/06/01 07:29:18;;;;;;;2.05;1.75;;;;;;;21.65;37.99;101851.88;4167492;28;20037;-46
2021/06/01 07:31:19;;;;;;;5.05;1.52;;;;;;;21.70;38.15;101853.84;4165741;28;20111;-45
2021/06/01 07:33:20;;;;;;;5.35;1.70;;;;;;;21.67;38.45;101846.03;4164698;28;20044;-46
2021/06/01 07:35:21;;;;;;;3.47;1.77;;;;;;;21.72;38.41;101838.53;4166132;28;20071;-47
2021/06/01 07:37:22;;;;;;;3.88;1.60;;;;;;;21.73;38.22;101843.00;4163566;28;20168;-48
2021/06/01 07:39:23;;;;;;;11.48;2.15;;;;;;;21.90;38.21;101856.69;4166090;28;20434;-48
2021/06/01 07:41:24;;;;;;;9.70;2.45;;;;;;;21.86;38.59;101847.19;4162853;28;20028;-47
2021/06/01 07:43:25;;;;;;;8.25;2.08;;;;;;;21.87;38.53;101842.44;4166075;28;20025;-48
2021/06/01 07:45:26;;;;;;;3.95;2.00;;;;;;;21.97;38.63;101856.41;4168991;28;20116;-48
2021/06/01 07:47:27;;;;;;;8.30;2.13;;;;;;;22.00;38.21;101857.88;4162525;28;20107;-50
2021/06/01 07:49:27;;;;;;;2.00;1.73;;;;;;;22.05;38.58;101855.91;4165382;28;20449;-48
2021/06/01 07:51:28;;;;;;;4.45;1.63;;;;;;;22.06;38.50;101852.00;4166036;28;20069;-48
2021/06/01 07:53:31;;;;;;;2.60;1.90;;;;;;;22.06;38.58;101852.00;4162774;28;20543;-44
2021/06/01 07:55:32;;;;;;;3.75;1.90;;;;;;;22.07;38.51;101852.84;4165282;28;20075;-46
2021/06/01 07:57:33;;;;;;;8.18;1.92;;;;;;;21.92;38.58;101814.63;4174186;28;20033;-45
2021/06/01 07:59:33;;;;;;;6.53;2.70;;;;;;;22.06;38.68;101848.41;4162265;28;20030;-46
2021/06/01 08:01:34;;;;;;;3.88;1.73;;;;;;;22.14;38.89;101853.41;4161831;28;20030;-46
2021/06/01 08:03:34;;;;;;;4.97;1.80;;;;;;;22.12;38.40;101840.84;4167845;28;20037;-45
2021/06/01 08:05:35;;;;;;;4.63;1.85;;;;;;;22.18;38.57;101862.06;4165705;28;20508;-45
2021/06/01 08:07:35;;;;;;;7.57;2.00;;;;;;;22.14;38.70;101852.59;4170824;28;20048;-46
2021/06/01 08:09:36;;;;;;;4.68;1.60;;;;;;;22.22;38.50;101857.59;4165154;28;20045;-46
2021/06/01 08:11:37;;;;;;;2.75;2.00;;;;;;;22.12;38.90;101838.06;4161523;28;20037;-46
2021/06/01 08:13:37;;;;;;;5.93;1.83;;;;;;;22.25;38.78;101862.63;4163527;28;20041;-46
2021/06/01 08:15:39;;;;;;;4.22;2.08;;;;;;;22.25;38.84;101849.50;4164243;28;20029;-48
2021/06/01 08:17:40;;;;;;;2.80;1.73;;;;;;;22.28;38.83;101848.13;4166171;28;20480;-46
2021/06/01 08:19:43;;;;;;;3.45;1.75;;;;;;;22.24;39.26;101838.63;4160543;28;20033;-47
2021/06/01 08:22:00;;;;;;;2.25;1.70;;;;;;;22.24;38.89;101835.84;4161174;28;20033;-47
2021/06/01 08:24:00;;;;;;;3.30;1.45;;;;;;;22.34;38.93;101835.03;4161084;28;20188;-49
2021/06/01 08:26:01;;;;;;;2.25;1.67;;;;;;;22.36;38.44;101847.56;4160461;28;20060;-46
2021/06/01 08:28:01;;;;;;;5.85;1.70;;;;;;;22.30;38.30;101834.72;4163727;28;20124;-48
2021/06/01 08:30:04;;;;;;;3.47;1.27;;;;;;;22.41;39.04;101847.56;4166438;28;20091;-44
2021/06/01 08:32:05;;;;;;;3.60;1.45;;;;;;;22.43;38.91;101842.56;4162380;28;20052;-47
2021/06/01 08:34:05;;;;;;;5.13;1.98;;;;;;;22.40;39.19;101843.09;4164830;28;20048;-46
2021/06/01 08:36:06;;;;;;;2.30;1.60;;;;;;;22.36;38.77;101825.25;4169901;28;20025;-49
2021/06/01 08:38:07;;;;;;;4.70;2.38;;;;;;;22.49;38.23;101834.16;4166580;28;20041;-49
2021/06/01 08:40:08;;;;;;;2.33;1.80;;;;;;;22.35;37.91;101812.41;4167721;28;20114;-48
2021/06/01 08:42:08;;;;;;;6.30;1.98;;;;;;;22.58;37.86;101838.06;4166514;28;20111;-46
2021/06/01 08:44:12;;;;;;;4.55;1.70;;;;;;;22.46;38.35;101827.19;4163028;28;20030;-45
2021/06/01 08:46:12;;;;;;;7.40;1.63;;;;;;;22.53;37.90;101827.75;4163731;28;20104;-47
2021/06/01 08:48:14;;;;;;;2.05;1.65;;;;;;;22.53;37.96;101827.75;4167582;28;21145;-48
2021/06/01 08:50:15;;;;;;;7.20;2.08;;;;;;;22.53;38.19;101835.28;4159733;28;20033;-47
2021/06/01 08:52:16;;;;;;;3.72;1.55;;;;;;;22.56;38.24;101820.78;4166666;28;20037;-48
2021/06/01 08:54:17;;;;;;;2.63;1.92;;;;;;;22.51;38.97;101818.84;4166359;28;20089;-49
2021/06/01 08:56:18;;;;;;;7.72;2.30;;;;;;;22.60;37.83;101817.16;4164845;28;20395;-46
2021/06/01 08:58:21;;;;;;;5.10;1.27;;;;;;;22.59;37.96;101814.63;4169592;28;20038;-46
2021/06/01 09:00:21;;;;;;;2.25;1.45;;;;;;;22.63;37.33;101818.50;4162314;28;20115;-46
2021/06/01 09:02:23;;;;;;;3.83;1.40;;;;;;;22.58;37.42;101807.38;4163856;28;20119;-49
2021/06/01 09:04:24;;;;;;;7.93;1.40;;;;;;;22.68;37.53;101818.56;4163385;28;20029;-49
2021/06/01 09:06:30;;;;;;;1.73;1.42;;;;;;;22.71;37.82;101819.94;4165845;28;20033;-45
2021/06/01 09:11:11;;;;;;;1.70;1.20;;;;;;;22.84;37.73;101816.56;4167525;28;20491;-48
2021/06/01 09:22:40;;;;;;;1.27;1.17;;;;;;;22.89;36.91;101826.88;4165293;28;20211;-46
2021/06/01 09:26:01;;;;;;;2.55;1.50;;;;;;;23.03;37.07;101825.16;4168208;28;20433;-48
2021/06/01 09:27:46;;;;;;;3.15;1.60;;;;;;;22.99;36.99;101812.91;4163968;28;20076;-48
2021/06/01 09:29:48;;;;;;;1.60;1.50;;;;;;;23.03;37.78;101818.75;4167134;28;20044;-46
2021/06/01 09:32:08;;;;;;;3.00;1.38;;;;;;;23.05;37.23;101816.50;4170651;28;20114;-49
2021/06/01 09:34:09;;;;;;;2.78;1.38;;;;;;;23.08;37.70;101810.34;4171039;28;20059;-46
2021/06/01 09:36:10;;;;;;;1.38;1.27;;;;;;;23.09;37.87;101818.44;4168460;28;20065;-50
2021/06/01 09:38:12;;;;;;;1.27;1.15;;;;;;;23.02;37.65;101800.31;4174954;28;20037;-49
2021/06/01 09:40:14;;;;;;;3.65;1.50;;;;;;;23.10;36.94;101817.31;4169159;28;20044;-47
2021/06/01 09:42:25;;;;;;;1.38;1.27;;;;;;;23.14;36.60;101812.84;4172695;28;20572;-46
2021/06/01 09:44:25;;;;;;;1.45;1.35;;;;;;;23.15;37.52;101805.31;4169667;28;20029;-50
2021/06/01 09:46:27;;;;;;;2.85;1.02;;;;;;;23.21;37.33;101820.09;4166739;28;20505;-45
2021/06/01 09:48:28;;;;;;;2.63;1.40;;;;;;;23.16;37.72;101813.41;4168824;28;20451;-51
2021/06/01 09:50:36;;;;;;;7.47;1.50;;;;;;;23.31;37.19;101820.03;4170570;28;20041;-48